Time;durP1;ratioP1;P1;durP2;ratioP2;P2;SDS_P1;SDS_P2;PMS_P1;PMS_P2;Temp;Humidity;BMP_temperature;BMP_pressure;BME280_temperature;BME280_humidity;BME280_pressure;Samples;Min_cycle;Max_cycle;Signal;HPM_P1;HPM_P2
2021/06/25 00:02:44;;;;;;;3.40;3.10;;;18.20;73.40;;;;;;10449789;28;20208;-28
2021/06/25 00:08:08;;;;;;;5.03;3.27;;;18.20;73.70;;;;;;10451370;28;20197;-28
2021/06/25 00:13:30;;;;;;;4.00;3.10;;;18.20;73.40;;;;;;10451161;28;20217;-28
2021/06/25 00:18:52;;;;;;;6.50;3.30;;;18.20;73.40;;;;;;10445659;28;20657;-27
2021/06/25 00:24:15;;;;;;;5.37;3.37;;;18.10;73.50;;;;;;10452477;28;20216;-28
2021/06/25 00:29:37;;;;;;;4.33;3.40;;;18.10;73.40;;;;;;10460232;28;20189;-27
2021/06/25 00:35:00;;;;;;;4.67;3.20;;;18.10;73.50;;;;;;10449661;28;20216;-28
2021/06/25 00:40:23;;;;;;;4.10;3.33;;;18.00;73.70;;;;;;10420262;28;20200;-28
2021/06/25 00:45:45;;;;;;;6.17;3.37;;;18.00;73.40;;;;;;10418205;28;20209;-28
2021/06/25 00:51:08;;;;;;;4.03;3.17;;;18.00;73.50;;;;;;10418538;28;20201;-30
2021/06/25 00:56:31;;;;;;;4.73;3.13;;;17.90;73.50;;;;;;10418500;28;20213;-28
2021/06/25 01:01:53;;;;;;;4.73;3.07;;;17.90;73.50;;;;;;10417721;28;20189;-28
2021/06/25 01:07:16;;;;;;;3.83;3.40;;;17.90;73.60;;;;;;10417350;28;20194;-28
2021/06/25 01:12:42;;;;;;;7.47;3.47;;;17.80;73.50;;;;;;10421038;28;20228;-28
2021/06/25 01:18:05;;;;;;;3.23;2.83;;;17.80;73.30;;;;;;10449196;28;20683;-27
2021/06/25 01:23:29;;;;;;;4.70;3.47;;;17.80;73.30;;;;;;10434811;28;20224;-28
2021/06/25 01:28:51;;;;;;;4.97;3.27;;;17.80;73.20;;;;;;10455774;28;20664;-27
2021/06/25 01:34:13;;;;;;;4.50;3.30;;;17.80;73.30;;;;;;10455010;28;20225;-27
2021/06/25 01:39:37;;;;;;;5.07;3.10;;;17.70;72.90;;;;;;10455783;28;20193;-27
2021/06/25 01:45:03;;;;;;;3.77;3.17;;;17.70;73.60;;;;;;10455138;28;20209;-27
2021/06/25 01:50:27;;;;;;;4.40;2.97;;;17.60;73.30;;;;;;10453867;28;20193;-28
2021/06/25 01:55:51;;;;;;;3.63;3.33;;;17.70;73.60;;;;;;10443473;28;20228;-27
2021/06/25 02:01:16;;;;;;;4.90;3.27;;;17.70;73.20;;;;;;10454723;28;20201;-27
2021/06/25 02:06:38;;;;;;;3.80;3.50;;;17.70;73.10;;;;;;10454877;28;20227;-27
2021/06/25 02:12:03;;;;;;;3.60;3.30;;;17.60;73.70;;;;;;10452801;28;20691;-27
2021/06/25 02:17:25;;;;;;;4.87;3.37;;;17.60;73.20;;;;;;10454745;28;20681;-28
2021/06/25 02:22:47;;;;;;;4.47;3.50;;;17.50;73.40;;;;;;10426209;28;20213;-27
2021/06/25 02:28:11;;;;;;;6.33;3.90;;;17.50;73.30;;;;;;10413737;28;20193;-29
2021/06/25 02:33:33;;;;;;;5.03;4.17;;;17.50;73.50;;;;;;10423583;28;20585;-26
2021/06/25 02:38:55;;;;;;;4.10;3.67;;;17.60;73.30;;;;;;10451579;28;20196;-28
2021/06/25 02:44:19;;;;;;;4.27;3.80;;;17.60;73.20;;;;;;10413613;28;20589;-27
2021/06/25 02:49:41;;;;;;;4.43;3.80;;;17.60;73.20;;;;;;10413747;28;20573;-29
2021/06/25 02:55:03;;;;;;;4.30;3.90;;;17.50;73.30;;;;;;10413056;28;20221;-26
2021/06/25 03:00:27;;;;;;;4.93;3.70;;;17.50;73.30;;;;;;10412367;28;20570;-27
2021/06/25 03:05:49;;;;;;;4.63;3.73;;;17.40;73.30;;;;;;10412913;28;20224;-28
2021/06/25 03:11:12;;;;;;;4.80;4.40;;;17.40;73.30;;;;;;10428992;28;20193;-26
2021/06/25 03:16:35;;;;;;;4.50;3.93;;;17.40;73.30;;;;;;10453057;28;20209;-26
2021/06/25 03:21:57;;;;;;;5.30;3.63;;;17.40;73.60;;;;;;10436631;28;20228;-28
2021/06/25 03:27:19;;;;;;;4.17;3.60;;;17.40;73.40;;;;;;10411561;28;20205;-28
2021/06/25 03:32:43;;;;;;;3.73;3.43;;;17.40;73.10;;;;;;10424787;28;20223;-28
2021/06/25 03:38:06;;;;;;;3.90;3.37;;;17.40;72.70;;;;;;10452088;28;20204;-27
2021/06/25 03:43:28;;;;;;;4.20;3.27;;;17.50;72.40;;;;;;10452328;28;20215;-27
2021/06/25 03:48:51;;;;;;;3.87;3.53;;;17.40;72.20;;;;;;10450699;28;20580;-27
2021/06/25 03:54:13;;;;;;;3.90;3.60;;;17.30;72.50;;;;;;10433370;28;20233;-27
2021/06/25 03:59:37;;;;;;;4.60;3.50;;;17.30;72.20;;;;;;10413670;28;20201;-27
2021/06/25 04:05:00;;;;;;;5.77;4.20;;;17.20;72.60;;;;;;10431799;28;20247;-27
2021/06/25 04:10:23;;;;;;;3.87;3.53;;;17.20;72.90;;;;;;10419363;28;20213;-27
2021/06/25 04:15:45;;;;;;;5.90;4.27;;;17.30;72.70;;;;;;10419188;28;20738;-28
2021/06/25 04:21:08;;;;;;;6.37;3.87;;;17.30;72.60;;;;;;10433292;28;20580;-28
2021/06/25 04:26:30;;;;;;;4.23;3.83;;;17.30;73.00;;;;;;10458003;28;20220;-27
2021/06/25 04:31:54;;;;;;;5.00;4.00;;;17.30;73.30;;;;;;10451969;28;20204;-27
2021/06/25 04:37:19;;;;;;;9.87;3.80;;;17.30;73.40;;;;;;10434994;28;20236;-27
2021/06/25 04:42:42;;;;;;;4.47;4.07;;;17.30;73.60;;;;;;10418744;28;20212;-27
2021/06/25 04:48:05;;;;;;;4.60;4.20;;;17.30;73.60;;;;;;10439161;28;20703;-27
2021/06/25 04:53:28;;;;;;;5.33;4.50;;;17.30;73.80;;;;;;10457512;28;20309;-27
2021/06/25 04:58:51;;;;;;;7.00;4.40;;;17.40;73.60;;;;;;10457781;28;20199;-28
2021/06/25 05:04:13;;;;;;;7.80;4.37;;;17.40;74.00;;;;;;10449121;28;20220;-27
2021/06/25 05:09:36;;;;;;;5.63;4.63;;;17.40;74.10;;;;;;10457198;28;20203;-27
2021/06/25 05:14:58;;;;;;;4.90;4.00;;;17.50;73.90;;;;;;10443405;28;20229;-28
2021/06/25 05:20:21;;;;;;;6.67;4.97;;;17.60;74.10;;;;;;10450320;28;20568;-27
2021/06/25 05:25:45;;;;;;;7.20;5.73;;;17.60;73.50;;;;;;10416758;28;20702;-28
2021/06/25 05:31:08;;;;;;;5.73;4.97;;;17.30;74.40;;;;;;10430475;28;20545;-27
2021/06/25 05:36:30;;;;;;;7.60;5.40;;;17.00;75.60;;;;;;10447327;28;20221;-26
2021/06/25 05:41:53;;;;;;;5.53;5.03;;;16.80;76.10;;;;;;10436512;28;20198;-27
2021/06/25 05:47:15;;;;;;;6.53;5.37;;;16.70;77.20;;;;;;10437773;28;20190;-27
2021/06/25 05:52:37;;;;;;;7.07;5.83;;;16.70;76.90;;;;;;10433712;28;20218;-27
2021/06/25 05:58:01;;;;;;;7.53;5.27;;;16.80;76.70;;;;;;10432477;28;20676;-27
2021/06/25 06:03:23;;;;;;;9.05;4.90;;;17.00;75.80;;;;;;10441434;22;20225;-25
2021/06/25 06:08:45;;;;;;;6.17;5.03;;;17.30;74.50;;;;;;10383416;28;20425;-29
2021/06/25 06:14:09;;;;;;;6.27;4.23;;;17.60;73.30;;;;;;10382483;28;20237;-29
2021/06/25 06:19:38;;;;;;;6.67;4.30;;;17.80;71.90;;;;;;10361083;28;20277;-27
2021/06/25 06:36:24;;;;;;;5.40;3.63;;;18.20;71.10;;;;;;10331148;28;20298;-28
2021/06/25 06:41:47;;;;;;;5.17;3.53;;;18.30;70.80;;;;;;10331051;28;20195;-27
2021/06/25 06:47:10;;;;;;;5.20;3.60;;;18.40;70.70;;;;;;10328002;28;20483;-28
2021/06/25 06:52:32;;;;;;;6.87;3.83;;;18.50;70.60;;;;;;10365045;28;20221;-27
2021/06/25 06:57:54;;;;;;;8.17;4.00;;;18.50;70.50;;;;;;10358991;28;20690;-28
2021/06/25 07:03:18;;;;;;;5.20;3.73;;;18.60;70.50;;;;;;10360881;28;20305;-29
2021/06/25 07:08:40;;;;;;;7.50;3.43;;;18.60;70.30;;;;;;10376789;28;20389;-29
2021/06/25 07:14:02;;;;;;;9.33;3.77;;;18.70;70.30;;;;;;10369511;28;20214;-27
2021/06/25 07:19:26;;;;;;;4.27;2.80;;;18.80;70.20;;;;;;10371919;28;20199;-30
2021/06/25 07:24:48;;;;;;;5.03;3.03;;;18.80;69.70;;;;;;10409828;28;20589;-29
2021/06/25 07:30:10;;;;;;;3.90;2.50;;;18.80;69.40;;;;;;10367212;28;20194;-29
2021/06/25 07:35:34;;;;;;;2.83;2.27;;;18.90;69.10;;;;;;10354483;28;20254;-28
2021/06/25 07:40:57;;;;;;;5.00;2.30;;;18.90;68.80;;;;;;10377964;28;20195;-30
2021/06/25 07:46:19;;;;;;;3.63;1.90;;;19.00;68.90;;;;;;10365822;28;20233;-28
2021/06/25 07:51:42;;;;;;;2.87;1.70;;;19.00;69.60;;;;;;10368507;28;20207;-29
2021/06/25 07:57:05;;;;;;;4.63;2.00;;;19.10;69.30;;;;;;10368228;28;20215;-29
2021/06/25 08:02:27;;;;;;;4.60;1.70;;;19.10;69.60;;;;;;10374884;28;20213;-29
2021/06/25 08:07:51;;;;;;;2.50;1.70;;;19.10;69.70;;;;;;10366605;28;20257;-29
2021/06/25 08:13:13;;;;;;;3.30;2.00;;;19.20;69.90;;;;;;10351265;28;20213;-28
2021/06/25 08:18:35;;;;;;;1.67;1.57;;;19.20;70.00;;;;;;10339533;28;20195;-29
2021/06/25 08:23:58;;;;;;;3.63;1.67;;;19.20;70.00;;;;;;10370788;28;20219;-29
2021/06/25 08:29:20;;;;;;;3.87;1.93;;;19.20;70.00;;;;;;10368935;28;20191;-29
2021/06/25 08:34:43;;;;;;;2.70;1.77;;;19.30;70.10;;;;;;10368941;28;20225;-28
2021/06/25 08:40:08;;;;;;;2.27;2.03;;;19.30;70.00;;;;;;10367255;28;20203;-29
2021/06/25 08:45:30;;;;;;;3.57;1.70;;;19.30;70.00;;;;;;10370655;28;20226;-28
2021/06/25 08:50:54;;;;;;;1.97;1.67;;;19.30;70.00;;;;;;10376354;28;20217;-28
2021/06/25 08:56:17;;;;;;;2.60;1.77;;;19.40;70.10;;;;;;10338455;28;20741;-29
2021/06/25 09:01:39;;;;;;;2.10;1.90;;;19.40;70.00;;;;;;10345880;28;20197;-28
2021/06/25 09:07:03;;;;;;;2.53;1.97;;;19.40;70.00;;;;;;10407502;28;20226;-28
2021/06/25 09:12:26;;;;;;;2.33;1.80;;;19.40;70.10;;;;;;10375519;28;20203;-28
2021/06/25 09:17:55;;;;;;;3.17;2.67;;;19.40;70.20;;;;;;10357693;28;20224;-28
2021/06/25 09:23:25;;;;;;;3.90;3.50;;;19.50;69.70;;;;;;10421666;28;20186;-27
2021/06/25 09:28:51;;;;;;;3.20;2.90;;;19.40;68.90;;;;;;10423193;28;20201;-28
2021/06/25 09:34:13;;;;;;;5.07;2.87;;;19.40;68.80;;;;;;10384688;28;20744;-27
2021/06/25 09:39:35;;;;;;;3.17;2.77;;;19.40;68.80;;;;;;10374137;28;20214;-27
2021/06/25 09:45:00;;;;;;;4.87;3.43;;;19.50;68.90;;;;;;10370602;28;20341;-28
2021/06/25 09:50:28;;;;;;;3.30;3.00;;;19.50;68.70;;;;;;10373100;28;20206;-28
2021/06/25 09:55:51;;;;;;;5.83;3.73;;;19.50;68.70;;;;;;10371160;28;20739;-28
2021/06/25 10:01:24;;;;;;;4.70;3.50;;;19.50;69.00;;;;;;10370823;28;20195;-28
2021/06/25 10:06:46;;;;;;;4.80;4.23;;;19.50;69.20;;;;;;10403696;28;20280;-27
2021/06/25 10:12:10;;;;;;;4.60;3.30;;;19.50;69.20;;;;;;10341660;28;20203;-28
2021/06/25 10:17:35;;;;;;;4.13;3.03;;;19.50;69.00;;;;;;10360925;28;20226;-27
2021/06/25 10:22:58;;;;;;;3.77;3.27;;;19.50;69.00;;;;;;10390861;28;20194;-27
2021/06/25 10:28:21;;;;;;;4.73;3.70;;;19.50;69.50;;;;;;10363449;28;20213;-27
2021/06/25 10:33:45;;;;;;;4.07;3.57;;;19.60;69.30;;;;;;10371091;28;20709;-27
2021/06/25 10:39:10;;;;;;;4.27;3.07;;;19.60;69.70;;;;;;10337062;28;20210;-27
2021/06/25 10:44:36;;;;;;;5.87;4.27;;;19.60;69.80;;;;;;10362643;28;20218;-28
2021/06/25 10:50:22;;;;;;;4.67;4.00;;;19.60;69.60;;;;;;10341470;28;20203;-27
2021/06/25 10:56:01;;;;;;;4.80;4.27;;;19.60;69.80;;;;;;10329967;28;20223;-28
2021/06/25 11:01:46;;;;;;;5.67;4.77;;;19.60;70.30;;;;;;10344780;28;20229;-28
2021/06/25 11:07:11;;;;;;;6.87;6.17;;;19.70;70.10;;;;;;10361390;28;20235;-28
2021/06/25 11:12:35;;;;;;;5.20;4.50;;;19.70;69.70;;;;;;10354625;28;20600;-27
2021/06/25 11:17:58;;;;;;;9.00;5.77;;;19.70;69.70;;;;;;10345010;28;20235;-28
2021/06/25 11:23:24;;;;;;;8.03;4.90;;;19.70;69.70;;;;;;10352022;28;20199;-28
2021/06/25 11:28:47;;;;;;;8.03;6.00;;;19.70;70.00;;;;;;10342043;28;20201;-28
2021/06/25 11:34:10;;;;;;;8.13;5.70;;;19.70;69.60;;;;;;10393717;28;20225;-28
2021/06/25 11:39:35;;;;;;;16.57;6.73;;;19.70;69.20;;;;;;10377785;28;20206;-28
2021/06/25 11:44:57;;;;;;;14.70;6.90;;;19.70;69.20;;;;;;10368864;28;20221;-28
2021/06/25 11:50:21;;;;;;;10.53;6.07;;;19.70;68.50;;;;;;10368979;28;20840;-27
2021/06/25 11:55:53;;;;;;;11.07;5.87;;;19.70;67.10;;;;;;10336363;28;20306;-27
2021/06/25 12:01:15;;;;;;;8.40;5.10;;;19.80;67.90;;;;;;10368396;28;20195;-28
2021/06/25 12:06:48;;;;;;;8.73;5.23;;;19.70;68.00;;;;;;10393727;28;20233;-28
2021/06/25 12:12:20;;;;;;;7.90;5.13;;;19.80;68.30;;;;;;10333298;28;20214;-28
2021/06/25 12:17:45;;;;;;;7.37;4.27;;;19.80;68.20;;;;;;10482110;22;20714;-26
2021/06/25 12:23:07;;;;;;;6.20;4.30;;;19.80;68.10;;;;;;10487262;28;20208;-28
2021/06/25 12:28:31;;;;;;;7.20;4.67;;;19.80;67.70;;;;;;10485443;28;20603;-27
2021/06/25 12:34:04;;;;;;;9.37;4.53;;;19.80;68.30;;;;;;10500298;28;20216;-28
2021/06/25 12:39:29;;;;;;;5.60;4.20;;;19.80;67.50;;;;;;10500310;28;20208;-27
2021/06/25 12:44:56;;;;;;;4.90;3.83;;;19.80;67.80;;;;;;10474837;28;20205;-27
2021/06/25 12:50:26;;;;;;;6.30;4.00;;;19.80;67.70;;;;;;10456175;28;20219;-25
2021/06/25 12:55:49;;;;;;;4.90;3.70;;;19.80;67.50;;;;;;10498264;28;20726;-26
2021/06/25 13:01:13;;;;;;;5.90;3.87;;;19.80;67.20;;;;;;10493788;28;20207;-26
2021/06/25 13:06:36;;;;;;;5.50;3.50;;;19.80;67.00;;;;;;10486163;28;20234;-27
2021/06/25 13:12:09;;;;;;;8.93;3.37;;;19.70;67.10;;;;;;10467687;28;20201;-28
2021/06/25 13:17:37;;;;;;;6.73;3.70;;;19.80;67.10;;;;;;10486820;28;20220;-28
2021/06/25 13:23:04;;;;;;;7.33;3.57;;;19.80;67.00;;;;;;10521334;28;20671;-28
2021/06/25 13:28:27;;;;;;;5.47;3.30;;;19.80;67.00;;;;;;10537803;28;20212;-27
2021/06/25 13:33:50;;;;;;;3.73;3.30;;;19.80;67.20;;;;;;10504334;28;20223;-27
2021/06/25 13:39:12;;;;;;;7.27;3.40;;;19.90;67.20;;;;;;10497346;28;20208;-28
2021/06/25 13:44:35;;;;;;;6.07;3.30;;;19.90;67.30;;;;;;10496589;28;20599;-27
2021/06/25 13:50:01;;;;;;;5.20;3.33;;;19.80;67.00;;;;;;10496664;28;20610;-27
2021/06/25 13:55:25;;;;;;;4.33;3.83;;;19.90;66.50;;;;;;10495044;28;20449;-27
2021/06/25 14:00:54;;;;;;;5.53;3.50;;;19.90;66.10;;;;;;10498822;28;20196;-28
2021/06/25 14:06:17;;;;;;;3.90;3.50;;;19.90;66.00;;;;;;10490833;28;20225;-28
2021/06/25 14:11:39;;;;;;;4.10;3.70;;;19.90;65.70;;;;;;10491474;28;20199;-28
2021/06/25 14:17:04;;;;;;;5.50;3.50;;;19.90;65.80;;;;;;10481904;28;20220;-26
2021/06/25 14:22:27;;;;;;;6.37;3.87;;;19.80;65.50;;;;;;10494800;28;20603;-27
2021/06/25 14:27:49;;;;;;;4.97;3.53;;;19.80;65.90;;;;;;10494047;28;20595;-28
2021/06/25 14:33:11;;;;;;;3.87;3.37;;;19.80;66.40;;;;;;10485722;28;20209;-27
2021/06/25 14:38:36;;;;;;;4.27;3.40;;;19.80;66.20;;;;;;10495138;28;20740;-26
2021/06/25 14:43:58;;;;;;;4.43;3.40;;;19.80;66.10;;;;;;10493543;28;20224;-28
2021/06/25 14:49:20;;;;;;;5.60;3.40;;;19.80;65.90;;;;;;10495099;28;20203;-28
2021/06/25 14:54:44;;;;;;;5.10;3.30;;;19.80;65.90;;;;;;10494505;28;20220;-28
2021/06/25 15:00:09;;;;;;;4.60;3.30;;;19.80;66.00;;;;;;10493669;28;20208;-28
2021/06/25 15:05:31;;;;;;;5.93;3.67;;;19.80;65.80;;;;;;10486551;28;20225;-27
2021/06/25 15:10:54;;;;;;;3.93;3.60;;;19.80;65.40;;;;;;10482381;28;20777;-27
2021/06/25 15:16:17;;;;;;;4.17;3.77;;;19.80;65.30;;;;;;10512019;28;20227;-28
2021/06/25 15:21:39;;;;;;;3.50;3.17;;;19.80;65.50;;;;;;10522126;28;20198;-28
2021/06/25 15:27:04;;;;;;;4.20;3.60;;;19.80;66.20;;;;;;10526934;28;20215;-26
2021/06/25 15:32:28;;;;;;;4.30;3.50;;;19.80;65.50;;;;;;10534645;28;20199;-28
2021/06/25 15:37:50;;;;;;;3.93;3.53;;;19.80;65.40;;;;;;10534440;28;20224;-28
2021/06/25 15:43:13;;;;;;;3.97;3.50;;;19.70;64.70;;;;;;10505497;28;20208;-28
2021/06/25 15:48:36;;;;;;;6.53;3.40;;;19.70;65.20;;;;;;10494536;28;20880;-27
2021/06/25 15:53:58;;;;;;;3.87;3.57;;;19.70;65.40;;;;;;10492925;28;20200;-28
2021/06/25 15:59:22;;;;;;;3.47;3.17;;;19.70;64.40;;;;;;10494500;28;20196;-27
2021/06/25 16:04:44;;;;;;;3.50;3.20;;;19.70;64.50;;;;;;10518776;28;20215;-27
2021/06/25 16:10:10;;;;;;;3.80;3.47;;;19.70;64.90;;;;;;10522523;28;20203;-28
2021/06/25 16:15:34;;;;;;;3.93;3.50;;;19.70;64.20;;;;;;10514305;28;20212;-27
2021/06/25 16:20:56;;;;;;;4.13;3.30;;;19.70;64.10;;;;;;10505684;28;20670;-27
2021/06/25 16:26:19;;;;;;;5.07;3.73;;;19.70;63.60;;;;;;10534603;28;20225;-26
2021/06/25 16:31:42;;;;;;;3.70;3.40;;;19.70;63.10;;;;;;10534202;28;20203;-28
2021/06/25 16:37:04;;;;;;;3.67;3.07;;;19.70;62.90;;;;;;10534765;28;20231;-27
2021/06/25 16:42:26;;;;;;;3.67;3.30;;;19.70;62.80;;;;;;10532088;28;20203;-28
2021/06/25 16:47:50;;;;;;;3.40;2.53;;;19.70;63.10;;;;;;10533316;28;20223;-28
2021/06/25 16:53:12;;;;;;;3.50;2.80;;;19.70;62.80;;;;;;10533357;28;20191;-28
2021/06/25 16:58:34;;;;;;;3.40;3.10;;;19.70;62.60;;;;;;10532495;28;20215;-27
2021/06/25 17:03:57;;;;;;;3.10;2.80;;;19.70;62.50;;;;;;10522661;28;20219;-27
2021/06/25 17:09:19;;;;;;;4.60;2.90;;;19.70;62.60;;;;;;10507234;28;20204;-28
2021/06/25 17:14:41;;;;;;;3.33;2.87;;;19.70;62.40;;;;;;10539031;28;20278;-27
2021/06/25 17:20:07;;;;;;;2.90;2.63;;;19.70;62.30;;;;;;10539095;28;20187;-27
2021/06/25 17:25:30;;;;;;;3.00;2.73;;;19.70;62.50;;;;;;10529292;28;20216;-27
2021/06/25 17:30:52;;;;;;;4.13;2.67;;;19.70;62.90;;;;;;10529447;28;20196;-26
2021/06/25 17:36:15;;;;;;;2.50;2.20;;;19.70;64.90;;;;;;10494953;28;20231;-27
2021/06/25 17:41:38;;;;;;;3.60;2.50;;;19.70;62.60;;;;;;10521074;28;20192;-27
2021/06/25 17:47:00;;;;;;;2.80;2.60;;;19.70;63.10;;;;;;10538105;28;20211;-29
2021/06/25 17:52:23;;;;;;;4.60;2.50;;;19.70;64.20;;;;;;10538068;28;20199;-27
2021/06/25 17:57:48;;;;;;;2.30;2.10;;;19.70;62.90;;;;;;10537412;28;20247;-28
2021/06/25 18:03:12;;;;;;;2.37;2.17;;;19.70;63.30;;;;;;10525040;28;20200;-27
2021/06/25 18:08:35;;;;;;;2.60;2.37;;;19.70;63.50;;;;;;10533424;28;20269;-28
2021/06/25 18:13:57;;;;;;;2.83;2.37;;;19.70;62.80;;;;;;10532814;28;20219;-28
2021/06/25 18:19:19;;;;;;;3.30;2.20;;;19.70;62.90;;;;;;10465056;22;20226;-29
2021/06/25 18:24:43;;;;;;;2.40;2.20;;;19.70;63.50;;;;;;10367351;28;20194;-28
2021/06/25 18:30:07;;;;;;;2.87;2.10;;;19.70;63.50;;;;;;10371781;28;20230;-29
2021/06/25 18:35:29;;;;;;;2.57;2.23;;;19.70;63.80;;;;;;10372561;28;20214;-30
2021/06/25 18:40:52;;;;;;;2.23;1.90;;;19.70;63.70;;;;;;10371338;28;20606;-30
2021/06/25 18:46:15;;;;;;;2.33;2.13;;;19.70;63.70;;;;;;10370508;28;20186;-28
2021/06/25 18:51:37;;;;;;;2.27;2.07;;;19.70;64.00;;;;;;10371577;28;20218;-29
2021/06/25 18:57:01;;;;;;;3.67;2.23;;;19.70;63.60;;;;;;10371506;28;20210;-28
2021/06/25 19:02:23;;;;;;;2.40;2.10;;;19.70;63.30;;;;;;10359762;28;20199;-29
2021/06/25 19:07:46;;;;;;;1.90;1.80;;;19.70;63.30;;;;;;10371183;28;20221;-28
2021/06/25 19:13:10;;;;;;;3.70;2.00;;;19.60;63.80;;;;;;10371606;28;20669;-28
2021/06/25 19:18:32;;;;;;;2.40;2.20;;;19.70;63.60;;;;;;10378691;28;20277;-29
2021/06/25 19:23:54;;;;;;;2.93;2.20;;;19.70;62.90;;;;;;10340031;28;20206;-29
2021/06/25 19:29:18;;;;;;;2.27;2.07;;;19.70;63.30;;;;;;10371919;28;20228;-30
2021/06/25 19:34:40;;;;;;;3.50;2.60;;;19.70;62.80;;;;;;10365802;28;20207;-28
2021/06/25 19:40:03;;;;;;;3.93;2.30;;;19.70;61.60;;;;;;10369765;28;20725;-29
2021/06/25 19:45:27;;;;;;;3.67;2.37;;;19.60;61.40;;;;;;10369569;28;20194;-31
2021/06/25 19:50:49;;;;;;;2.40;2.20;;;19.60;61.80;;;;;;10367553;28;20215;-29
2021/06/25 19:56:11;;;;;;;5.53;2.23;;;19.60;60.70;;;;;;10379635;28;20292;-28
2021/06/25 20:01:35;;;;;;;4.60;2.43;;;19.60;60.70;;;;;;10383362;28;20218;-29
2021/06/25 20:06:57;;;;;;;3.10;1.93;;;19.50;60.60;;;;;;10368110;28;20582;-30
2021/06/25 20:12:20;;;;;;;2.30;2.07;;;19.50;60.90;;;;;;10368336;28;20229;-29
2021/06/25 20:17:44;;;;;;;2.50;2.30;;;19.40;60.60;;;;;;10369321;28;20305;-29
2021/06/25 20:23:07;;;;;;;2.50;2.30;;;19.40;61.40;;;;;;10368829;28;20257;-31
2021/06/25 20:28:32;;;;;;;3.60;2.70;;;19.40;62.10;;;;;;10349433;28;20304;-29
2021/06/25 20:33:55;;;;;;;5.53;3.27;;;19.20;63.80;;;;;;10361213;28;20694;-30
2021/06/25 20:39:17;;;;;;;5.27;3.27;;;19.00;64.90;;;;;;10370530;28;20222;-30
2021/06/25 20:44:39;;;;;;;3.03;2.73;;;19.00;65.10;;;;;;10375249;28;20210;-30
2021/06/25 20:50:04;;;;;;;3.37;3.10;;;19.00;64.90;;;;;;10375474;28;20229;-31
2021/06/25 20:55:26;;;;;;;2.93;2.60;;;18.80;66.30;;;;;;10376386;28;20214;-30
2021/06/25 21:00:48;;;;;;;3.30;2.90;;;18.80;66.10;;;;;;10380162;28;20550;-30
2021/06/25 21:06:12;;;;;;;3.63;3.10;;;18.90;66.20;;;;;;10361702;28;20225;-31
2021/06/25 21:11:36;;;;;;;3.50;3.23;;;18.70;66.90;;;;;;10409756;28;20218;-28
2021/06/25 21:16:58;;;;;;;4.70;4.27;;;18.70;67.40;;;;;;10410534;28;20348;-30
2021/06/25 21:22:22;;;;;;;4.23;3.93;;;18.60;68.10;;;;;;10370566;28;20618;-28
2021/06/25 21:27:44;;;;;;;4.20;3.67;;;18.60;68.00;;;;;;10383713;28;20210;-30
2021/06/25 21:33:07;;;;;;;3.73;3.43;;;18.50;68.20;;;;;;10374822;28;20202;-29
2021/06/25 21:38:30;;;;;;;3.67;3.30;;;18.20;69.50;;;;;;10375120;28;20222;-28
2021/06/25 21:43:52;;;;;;;4.23;3.60;;;18.00;70.30;;;;;;10375170;28;20194;-28
2021/06/25 21:49:14;;;;;;;4.57;3.90;;;17.90;70.80;;;;;;10374781;28;20215;-29
2021/06/25 21:54:38;;;;;;;5.43;4.40;;;18.10;69.70;;;;;;10372590;28;20202;-28
2021/06/25 22:00:00;;;;;;;5.57;4.00;;;18.20;68.40;;;;;;10374943;28;20218;-29
2021/06/25 22:05:22;;;;;;;4.97;4.30;;;18.00;68.80;;;;;;10367049;28;20198;-28
2021/06/25 22:10:46;;;;;;;5.67;4.57;;;18.00;69.30;;;;;;10373385;28;20222;-28
2021/06/25 22:16:08;;;;;;;5.20;4.57;;;18.00;68.70;;;;;;10372867;28;20633;-28
2021/06/25 22:21:30;;;;;;;5.07;4.57;;;18.10;68.60;;;;;;10370606;28;20223;-30
2021/06/25 22:26:53;;;;;;;4.87;4.37;;;17.80;69.60;;;;;;10366336;28;20205;-28
2021/06/25 22:32:15;;;;;;;5.50;4.00;;;17.60;70.30;;;;;;10412959;28;20222;-28
2021/06/25 22:37:38;;;;;;;4.70;4.30;;;17.50;71.00;;;;;;10381982;28;20570;-28
2021/06/25 22:43:01;;;;;;;5.67;3.80;;;17.40;71.80;;;;;;10413185;28;20546;-28
2021/06/25 22:48:23;;;;;;;4.27;3.83;;;17.50;71.80;;;;;;10412088;28;20218;-28
2021/06/25 22:53:45;;;;;;;4.73;4.33;;;17.30;72.20;;;;;;10411652;28;20198;-30
2021/06/25 22:59:09;;;;;;;4.50;4.10;;;17.20;72.40;;;;;;10411764;28;20229;-29
2021/06/25 23:04:31;;;;;;;7.03;4.60;;;17.10;72.90;;;;;;10373147;28;20628;-28
2021/06/25 23:09:53;;;;;;;6.27;4.57;;;17.10;72.90;;;;;;10411973;28;20237;-29
2021/06/25 23:15:16;;;;;;;5.10;4.60;;;17.20;72.90;;;;;;10391316;28;20202;-29
2021/06/25 23:20:38;;;;;;;5.10;3.97;;;17.10;72.80;;;;;;10392954;28;20226;-28
2021/06/25 23:26:00;;;;;;;4.33;3.93;;;17.00;73.40;;;;;;10331792;28;20209;-27
2021/06/25 23:31:24;;;;;;;5.03;4.43;;;16.90;73.90;;;;;;10411191;28;20218;-28
2021/06/25 23:36:47;;;;;;;5.57;4.90;;;17.10;73.30;;;;;;10366390;28;20617;-28
2021/06/25 23:42:09;;;;;;;5.20;4.63;;;17.10;73.40;;;;;;10370643;28;20719;-28
2021/06/25 23:47:33;;;;;;;6.07;4.87;;;17.00;73.10;;;;;;10369620;28;20666;-28
2021/06/25 23:52:55;;;;;;;4.73;4.17;;;17.00;73.30;;;;;;10369299;28;20202;-29
2021/06/25 23:58:17;;;;;;;5.30;4.80;;;17.30;71.80;;;;;;10370280;28;20248;-29
